Data for 01/08/2014

Time Sea-Level Adjusted Pressure Absolute Pressure Temperature Relative Humidity Dew Point   
(mb) (inHg) (mb) (inHg) (C) (F) (%) (C) (F)
00:05 1016 30 845 24.95 -0.9 30.4 79 -4.1 24.6
00:10 1016 30 845 24.95 -0.9 30.4 79 -4.1 24.6
00:15 1016 30 845 24.95 -0.9 30.5 78 -4.2 24.4
00:20 1016 30 845 24.95 -0.8 30.6 78 -4.2 24.4
00:25 1016 30 845 24.95 -0.7 30.8 76 -4.4 24.1
00:30 1016 30 845 24.95 -0.6 30.9 76 -4.3 24.2
00:35 1016 30 845 24.95 -0.7 30.7 78 -4 24.8
00:40 1016 30 845 24.95 -1 30.2 79 -4.2 24.5
00:45 1016 30 845 24.95 -1.1 30 79 -4.2 24.4
00:50 1016 30 845 24.95 -1.2 29.9 79 -4.4 24
00:55 1016 30 845 24.95 -1 30.2 78 -4.3 24.2
01:00 1016 30 845 24.95 -1 30.2 77 -4.5 24
01:05 1016 30 845 24.95 -1 30.3 77 -4.4 24
01:10 1016 30 845 24.95 -1 30.2 77 -4.5 23.9
01:15 1016 30 845 24.95 -0.9 30.3 78 -4.3 24.2
01:20 1016 30 845 24.95 -0.9 30.3 78 -4.3 24.2
01:25 1016 30 845 24.95 -1 30.2 79 -4.2 24.4
01:30 1016 30 845 24.95 -1.2 29.8 80 -4.2 24.4
01:35 1016 30 845 24.95 -1.3 29.7 81 -4.2 24.4
01:40 1016 30 845 24.95 -1.6 29.2 81 -4.4 24.1
01:45 1016 30 845 24.95 -1.6 29.2 81 -4.5 24
01:50 1016 30 845 24.95 -1.6 29.1 81 -4.5 23.9
01:55 1016 30 845 24.95 -2.1 28.2 85 -4.4 24.2
02:00 1016 30 845 24.95 -2.2 28.1 83 -4.7 23.5
02:05 1016 30 845 24.95 -1.9 28.7 83 -4.4 24
02:10 1016 30 845 24.95 -2.1 28.3 83 -4.6 23.7
02:15 1016 30 845 24.95 -2.4 27.7 82 -5 23
02:20 1015 29.97 845 24.95 -2.7 27.2 85 -4.9 23.2
02:25 1015 29.97 845 24.95 -2.9 26.8 85 -5.1 22.8
02:30 1015 29.97 845 24.95 -2.8 27 83 -5.3 22.5
02:35 1015 29.97 845 24.95 -2.7 27.1 82 -5.4 22.3
02:40 1016 30 845 24.95 -2.8 27 82 -5.4 22.4
02:45 1016 30 845 24.95 -2.9 26.7 83 -5.5 22.1
02:50 1016 30 845 24.95 -2.8 27 82 -5.5 22.2
02:55 1016 30 845 24.95 -2.8 27 82 -5.4 22.3
03:00 1016 30 845 24.95 -2.8 27 82 -5.4 22.2
03:05 1016 30 845 24.95 -2.8 27.1 81 -5.6 22
03:10 1016 30 845 24.95 -3 26.5 81 -5.8 21.5
03:15 1016 30 845 24.95 -3.2 26.2 81 -6.1 21.1
03:20 1016 30 845 24.95 -3.4 25.9 80 -6.4 20.6
03:25 1016 30 845 24.95 -3.4 25.8 79 -6.5 20.3
03:30 1016 30 845 24.95 -3.6 25.5 80 -6.5 20.2
03:35 1016 30 845 24.95 -3.6 25.5 80 -6.7 20
03:40 1016 30 845 24.95 -3.7 25.4 79 -6.8 19.8
03:45 1016 30 845 24.95 -3.6 25.5 78 -6.9 19.7
03:50 1016 30 845 24.95 -3.3 26.1 76 -6.9 19.6
03:55 1016 30 845 24.95 -3.2 26.2 77 -6.7 19.9
04:00 1016 30 845 24.95 -3 26.6 77 -6.5 20.3
04:05 1016 30 845 24.95 -2.9 26.8 76 -6.5 20.3
04:10 1016 30 845 24.95 -3 26.7 76 -6.7 20
04:15 1016 30 845 24.95 -3 26.6 75 -6.9 19.6
04:20 1016 30 845 24.95 -2.5 27.6 72 -6.8 19.7
04:25 1016 30 845 24.95 -2.7 27.1 73 -6.9 19.6
04:30 1016 30 845 24.95 -3.1 26.4 75 -7 19.5
04:35 1016 30 845 24.95 -3.3 26.1 75 -7.1 19.3
04:40 1016 30 845 24.95 -3.2 26.2 76 -7 19.5
04:45 1016 30 845 24.95 -3.4 25.9 76 -7 19.4
04:50 1016 30 845 24.95 -3.5 25.7 77 -7.1 19.3
04:55 1016 30 845 24.95 -3.5 25.7 77 -7 19.4
05:00 1016 30 845 24.95 -3.2 26.2 76 -6.9 19.6
05:05 1016 30 845 24.95 -3 26.6 75 -6.8 19.7
05:10 1016 30 845 24.95 -2.8 27 74 -6.8 19.8
05:15 1016 30 845 24.95 -2.6 27.3 73 -6.8 19.8
05:20 1016 30 845 24.95 -2.6 27.4 73 -6.7 19.9
05:25 1016 30 845 24.95 -2.6 27.2 74 -6.7 19.9
05:30 1016 30 845 24.95 -2.5 27.5 72 -6.8 19.7
05:35 1015 29.97 845 24.95 -2.3 27.8 72 -6.7 19.9
05:40 1015 29.97 845 24.95 -2.4 27.7 74 -6.5 20.4
05:45 1015 29.97 845 24.95 -2.6 27.3 75 -6.5 20.3
05:50 1015 29.97 845 24.95 -2.6 27.4 73 -6.8 19.8
05:55 1015 29.97 845 24.95 -2.5 27.5 73 -6.7 20
06:00 1015 29.97 845 24.95 -2.6 27.4 73 -6.7 20
06:05 1015 29.97 844 24.92 -2.5 27.6 73 -6.6 20.2
06:10 1015 29.97 845 24.95 -2.3 27.9 73 -6.6 20.2
06:15 1015 29.97 845 24.95 -2.4 27.7 74 -6.4 20.6
06:20 1015 29.97 845 24.95 -2.2 28.1 71 -6.7 19.9
06:25 1015 29.97 845 24.95 -2.1 28.2 73 -6.4 20.5
06:30 1015 29.97 845 24.95 -2.2 28 73 -6.5 20.3
06:35 1015 29.97 845 24.95 -2 28.4 71 -6.6 20.2
06:40 1015 29.97 845 24.95 -1.9 28.5 71 -6.5 20.3
06:45 1015 29.97 844 24.92 -1.8 28.7 71 -6.5 20.3
06:50 1015 29.97 844 24.92 -1.8 28.8 71 -6.3 20.6
06:55 1015 29.97 844 24.92 -1.9 28.6 72 -6.4 20.5
07:00 1015 29.97 845 24.95 -1.7 28.9 70 -6.4 20.4
07:05 1015 29.97 845 24.95 -1.7 29 71 -6.3 20.7
07:10 1015 29.97 845 24.95 -1.8 28.8 72 -6.1 21
07:15 1015 29.97 845 24.95 -1.8 28.8 72 -6.1 20.9
07:20 1015 29.97 844 24.92 -1.7 28.9 72 -6.2 20.8
07:25 1015 29.97 844 24.92 -1.7 28.9 72 -6.2 20.8
07:30 1015 29.97 844 24.92 -1.7 29 72 -6 21.1
07:35 1015 29.97 844 24.92 -1.7 28.9 73 -5.9 21.3
07:40 1015 29.97 845 24.95 -1.9 28.7 74 -5.9 21.4
07:45 1015 29.97 845 24.95 -1.9 28.5 75 -5.8 21.6
07:50 1015 29.97 845 24.95 -2 28.5 76 -5.6 21.9
07:55 1015 29.97 844 24.92 -2 28.4 79 -5.2 22.6
08:00 1015 29.97 844 24.92 -2.2 28 81 -5.1 22.9
08:05 1015 29.97 845 24.95 -2.4 27.7 83 -4.9 23.2
08:10 1015 29.97 845 24.95 -2.5 27.6 84 -4.8 23.4
08:15 1015 29.97 844 24.92 -2.5 27.5 86 -4.6 23.8
08:20 1015 29.97 845 24.95 -2.6 27.4 87 -4.5 23.9
08:25 1015 29.97 845 24.95 -2.6 27.3 88 -4.4 24.1
08:30 1015 29.97 845 24.95 -2.6 27.3 88 -4.4 24.2
08:35 1015 29.97 845 24.95 -2.6 27.3 88 -4.3 24.2
08:40 1015 29.97 845 24.95 -2.6 27.4 88 -4.2 24.4
08:45 1015 29.97 845 24.95 -2.6 27.4 89 -4.1 24.5
08:50 1015 29.97 845 24.95 -2.6 27.4 89 -4.1 24.6
08:55 1015 29.97 845 24.95 -2.6 27.3 90 -4 24.7
09:00 1015 29.97 845 24.95 -2.6 27.2 91 -4 24.8
09:05 1015 29.97 845 24.95 -2.6 27.3 91 -3.9 25
09:10 1015 29.97 845 24.95 -2.6 27.3 91 -3.8 25.1
09:15 1016 30 845 24.95 -2.6 27.3 92 -3.8 25.2
09:20 1016 30 845 24.95 -2.7 27.2 92 -3.8 25.1
09:25 1016 30 845 24.95 -2.6 27.3 92 -3.8 25.2
09:30 1016 30 845 24.95 -2.6 27.4 92 -3.7 25.3
09:35 1016 30 845 24.95 -2.3 27.8 91 -3.6 25.6
09:40 1016 30 845 24.95 -2.3 27.9 92 -3.4 25.8
09:45 1016 30 845 24.95 -2.2 28 92 -3.4 26
09:50 1016 30 845 24.95 -2.1 28.2 92 -3.2 26.2
09:55 1016 30 845 24.95 -1.8 28.7 92 -3 26.6
10:00 1016 30 845 24.95 -1.6 29.2 90 -3 26.6
10:05 1016 30 845 24.95 -1.6 29.1 90 -3.1 26.5
10:10 1016 30 845 24.95 -1.6 29.2 89 -3.1 26.4
10:15 1016 30 845 24.95 -1.4 29.4 89 -3.1 26.5
10:20 1016 30 845 24.95 -1.2 29.8 87 -3.1 26.4
10:25 1016 30 845 24.95 -1.2 29.9 87 -3 26.5
10:30 1016 30 845 24.95 -1.2 29.8 87 -3.1 26.4
10:35 1016 30 845 24.95 -1.4 29.5 87 -3.2 26.2
10:40 1016 30 845 24.95 -1.4 29.4 87 -3.3 26.1
10:45 1016 30 845 24.95 -1.4 29.4 87 -3.3 26
10:50 1016 30 845 24.95 -1.4 29.6 87 -3.3 26
10:55 1016 30 845 24.95 -1.2 29.8 86 -3.2 26.2
11:00 1016 30 845 24.95 -1.2 29.9 86 -3.2 26.2
11:05 1016 30 845 24.95 -1.3 29.7 86 -3.3 26.1
11:10 1016 30 846 24.98 -1.2 29.9 86 -3.3 26.1
11:15 1016 30 846 24.98 -1 30.1 86 -3.2 26.3
11:20 1016 30 846 24.98 -1 30.1 86 -3.1 26.4
11:25 1016 30 846 24.98 -0.9 30.4 85 -3.1 26.5
11:30 1016 30 845 24.95 -0.8 30.5 85 -3 26.6
11:35 1016 30 845 24.95 -0.6 30.8 85 -2.9 26.8
11:40 1016 30 846 24.98 -0.6 30.9 85 -2.8 27
11:45 1016 30 846 24.98 -0.4 31.3 85 -2.6 27.4
11:50 1016 30 846 24.98 0 32.1 83 -2.5 27.6
11:55 1016 30 846 24.98 0.3 32.6 82 -2.4 27.7
12:00 1016 30 845 24.95 0.4 32.8 82 -2.3 27.8
12:05 1016 30 845 24.95 0.7 33.3 80 -2.2 28
12:10 1016 30 845 24.95 0.8 33.4 81 -2 28.3
12:15 1016 30 845 24.95 0.6 33.1 82 -2.1 28.2
12:20 1016 30 845 24.95 0.6 33 83 -2 28.3
12:25 1016 30 845 24.95 0.7 33.2 82 -2.1 28.2
12:30 1016 30 845 24.95 0.8 33.5 81 -2 28.3
12:35 1016 30 845 24.95 1 33.8 82 -1.8 28.8
12:40 1016 30 845 24.95 0.8 33.4 83 -1.8 28.8
12:45 1016 30 845 24.95 0.7 33.3 83 -1.8 28.8
12:50 1016 30 845 24.95 0.5 32.9 85 -1.7 28.9
12:55 1016 30 845 24.95 0.4 32.7 85 -1.9 28.6
13:00 1016 30 845 24.95 0.6 33.1 84 -1.8 28.7
13:05 1016 30 845 24.95 0.6 33.2 84 -1.8 28.7
13:10 1015 29.97 845 24.95 0.6 33 83 -1.9 28.5
13:15 1015 29.97 845 24.95 0.6 33.2 84 -1.7 28.9
13:20 1015 29.97 845 24.95 1.1 34 80 -1.9 28.6
13:25 1015 29.97 844 24.92 1.1 33.9 81 -1.8 28.8
13:30 1015 29.97 844 24.92 1 33.8 81 -1.8 28.7
13:35 1015 29.97 844 24.92 1 33.9 82 -1.7 29
13:40 1015 29.97 844 24.92 1.2 34.2 80 -1.8 28.8
13:45 1015 29.97 844 24.92 1.3 34.4 80 -1.8 28.7
13:50 1015 29.97 844 24.92 1.3 34.4 79 -1.8 28.7
13:55 1015 29.97 844 24.92 1.2 34.2 80 -1.9 28.7
14:00 1015 29.97 844 24.92 1.5 34.6 79 -1.8 28.8
14:05 1015 29.97 844 24.92 2 35.6 77 -1.7 28.9
14:10 1015 29.97 844 24.92 2.2 35.9 75 -1.9 28.6
14:15 1015 29.97 844 24.92 2.2 36 73 -2.1 28.3
14:20 1015 29.97 844 24.92 2.3 36.1 73 -2.1 28.2
14:25 1015 29.97 844 24.92 2.3 36.2 72 -2.2 28.1
14:30 1015 29.97 844 24.92 2.2 36 72 -2.3 27.9
14:35 1015 29.97 844 24.92 2.3 36.2 73 -2 28.4
14:40 1014 29.94 844 24.92 1.9 35.4 76 -1.9 28.6
14:45 1014 29.94 844 24.92 1.8 35.2 77 -1.7 28.9
14:50 1014 29.94 843 24.89 1.6 34.9 77 -2 28.4
14:55 1014 29.94 843 24.89 1.5 34.7 78 -1.9 28.6
15:00 1014 29.94 843 24.89 1.6 34.9 76 -2.1 28.2
15:05 1014 29.94 843 24.89 1.5 34.8 78 -1.9 28.6
15:10 1014 29.94 843 24.89 1.4 34.5 79 -1.9 28.6
15:15 1014 29.94 843 24.89 1.7 35 78 -1.8 28.7
15:20 1014 29.94 843 24.89 2.1 35.8 74 -2 28.4
15:25 1014 29.94 843 24.89 2.3 36.1 74 -1.8 28.7
15:30 1014 29.94 843 24.89 2.3 36.1 75 -1.7 29
15:35 1014 29.94 843 24.89 2.1 35.9 75 -1.9 28.6
15:40 1014 29.94 843 24.89 2 35.7 75 -2 28.4
15:45 1014 29.94 843 24.89 1.9 35.5 75 -2 28.4
15:50 1014 29.94 843 24.89 2.1 35.8 74 -2 28.4
15:55 1014 29.94 843 24.89 2.4 36.4 72 -2.1 28.2
16:00 1014 29.94 843 24.89 2.4 36.3 69 -2.7 27.2
16:05 1014 29.94 843 24.89 2.2 35.9 71 -2.6 27.4
16:10 1014 29.94 843 24.89 2.3 36.2 69 -2.7 27.1
16:15 1014 29.94 843 24.89 2.6 36.7 70 -2.4 27.7
16:20 1014 29.94 844 24.92 2.7 36.9 68 -2.6 27.4
16:25 1014 29.94 844 24.92 2.5 36.5 68 -2.8 26.9
16:30 1014 29.94 844 24.92 2.5 36.4 68 -2.7 27.1
16:35 1014 29.94 844 24.92 2.4 36.4 68 -2.9 26.8
16:40 1014 29.94 844 24.92 2.4 36.2 69 -2.7 27.2
16:45 1014 29.94 844 24.92 2.3 36.2 71 -2.5 27.5
16:50 1014 29.94 844 24.92 2.1 35.9 72 -2.3 27.9
16:55 1014 29.94 844 24.92 2 35.6 74 -2.1 28.3
17:00 1014 29.94 844 24.92 1.8 35.3 70 -3 26.5
17:05 1014 29.94 843 24.89 1.7 35 72 -2.9 26.8
17:10 1014 29.94 843 24.89 1.6 34.8 74 -2.7 27.2
17:15 1014 29.94 843 24.89 1.5 34.8 76 -2.3 27.8
17:20 1014 29.94 843 24.89 1.4 34.6 78 -2.1 28.2
17:25 1014 29.94 843 24.89 1.4 34.4 77 -2.2 28
17:30 1014 29.94 843 24.89 1.4 34.5 77 -2.2 28
17:35 1014 29.94 843 24.89 1.3 34.4 78 -2.2 28.1
17:40 1014 29.94 843 24.89 1.3 34.4 78 -2.1 28.2
17:45 1014 29.94 843 24.89 1.2 34.2 79 -2.1 28.2
17:50 1014 29.94 843 24.89 1.2 34.2 79 -2.1 28.2
17:55 1014 29.94 843 24.89 1.2 34.1 79 -2 28.3
18:00 1014 29.94 843 24.89 1 33.8 80 -2 28.3
18:05 1014 29.94 843 24.89 0.9 33.6 79 -2.4 27.6
18:10 1014 29.94 843 24.89 0.9 33.7 79 -2.3 27.9
18:15 1014 29.94 843 24.89 1 33.7 80 -2.2 28.1
18:20 1014 29.94 843 24.89 0.7 33.3 80 -2.3 27.8
18:25 1014 29.94 843 24.89 0.7 33.3 80 -2.4 27.6
18:30 1014 29.94 843 24.89 0.9 33.6 78 -2.6 27.4
18:35 1014 29.94 843 24.89 1 33.7 76 -2.8 27
18:40 1014 29.94 843 24.89 1.1 33.9 76 -2.6 27.2
18:45 1014 29.94 843 24.89 1 33.9 75 -2.9 26.8
18:50 1014 29.94 843 24.89 1.1 34 76 -2.7 27.1
18:55 1014 29.94 843 24.89 1.1 33.9 72 -3.4 25.9
19:00 1014 29.94 843 24.89 1.1 34 69 -3.9 25
19:05 1014 29.94 843 24.89 1.3 34.4 69 -3.7 25.3
19:10 1014 29.94 843 24.89 1.5 34.7 69 -3.6 25.5
19:15 1014 29.94 843 24.89 1.6 34.8 67 -3.8 25.1
19:20 1014 29.94 843 24.89 1.6 34.9 66 -4 24.8
19:25 1014 29.94 843 24.89 1.7 35 68 -3.6 25.6
19:30 1014 29.94 843 24.89 1.6 34.9 66 -4.1 24.7
19:35 1014 29.94 843 24.89 1.6 34.8 69 -3.5 25.8
19:40 1014 29.94 843 24.89 1.4 34.6 68 -3.9 25
19:45 1014 29.94 843 24.89 1.4 34.4 67 -4.1 24.6
19:50 1014 29.94 843 24.89 1.4 34.6 66 -4.3 24.3
19:55 1014 29.94 843 24.89 1.5 34.8 63 -4.7 23.6
20:00 1014 29.94 843 24.89 1.5 34.8 62 -5 23
20:05 1014 29.94 843 24.89 1.4 34.6 64 -4.6 23.7
20:10 1014 29.94 843 24.89 1.3 34.4 64 -4.7 23.6
20:15 1014 29.94 843 24.89 1.3 34.3 63 -5 23
20:20 1014 29.94 843 24.89 1.4 34.5 62 -5.1 22.9
20:25 1014 29.94 843 24.89 1.4 34.6 61 -5.4 22.3
20:30 1014 29.94 843 24.89 1.6 34.8 57 -6 21.2
20:35 1014 29.94 843 24.89 2 35.6 57 -5.6 22
20:40 1014 29.94 843 24.89 1.8 35.2 60 -5.3 22.5
20:45 1014 29.94 843 24.89 1.8 35.2 58 -5.7 21.7
20:50 1014 29.94 843 24.89 1.8 35.3 57 -5.9 21.4
20:55 1014 29.94 843 24.89 1.8 35.3 57 -5.8 21.6
21:00 1014 29.94 843 24.89 1.9 35.3 57 -5.8 21.6
21:05 1014 29.94 843 24.89 1.9 35.4 57 -5.7 21.7
21:10 1014 29.94 843 24.89 1.9 35.4 58 -5.6 21.9
21:15 1013 29.91 843 24.89 1.8 35.3 54 -6.6 20.2
21:20 1013 29.91 843 24.89 2.2 35.9 54 -6.2 20.9
21:25 1013 29.91 843 24.89 2.2 35.9 56 -5.6 21.9
21:30 1013 29.91 842 24.86 1.8 35.2 56 -6.1 21
21:35 1013 29.91 842 24.86 1.8 35.3 55 -6.2 20.9
21:40 1013 29.91 842 24.86 2 35.6 53 -6.6 20.1
21:45 1013 29.91 842 24.86 2 35.7 53 -6.5 20.3
21:50 1013 29.91 842 24.86 1.9 35.5 53 -6.6 20.1
21:55 1013 29.91 842 24.86 2 35.6 52 -6.8 19.8
22:00 1013 29.91 842 24.86 1.9 35.4 52 -6.9 19.6
22:05 1013 29.91 842 24.86 1.6 35 53 -7 19.4
22:10 1013 29.91 842 24.86 1.5 34.7 55 -6.6 20.1
22:15 1013 29.91 842 24.86 1.5 34.6 51 -7.7 18.2
22:20 1013 29.91 842 24.86 2.1 35.7 50 -7.3 18.8
22:25 1012 29.88 842 24.86 2.2 36 49 -7.4 18.6
22:30 1012 29.88 842 24.86 2.2 36 49 -7.3 18.8
22:35 1012 29.88 841 24.83 2.2 36 48 -7.6 18.3
22:40 1012 29.88 841 24.83 2.3 36.2 45 -8.5 16.7
22:45 1012 29.88 841 24.83 2.8 37.1 46 -7.6 18.3
22:50 1012 29.88 841 24.83 2.2 36 50 -7.2 19
22:55 1012 29.88 841 24.83 1.7 35.1 50 -7.6 18.3
23:00 1012 29.88 841 24.83 1.8 35.2 49 -7.9 17.7
23:05 1012 29.88 841 24.83 1.9 35.4 49 -7.8 17.9
23:10 1012 29.88 841 24.83 1.8 35.2 49 -7.8 18
23:15 1012 29.88 841 24.83 1.9 35.4 48 -7.9 17.8
23:20 1012 29.88 841 24.83 2 35.6 48 -7.8 18
23:25 1012 29.88 841 24.83 1.7 35.1 51 -7.4 18.8
23:30 1012 29.88 841 24.83 1.3 34.4 51 -7.7 18.2
23:35 1012 29.88 841 24.83 1.2 34.2 52 -7.5 18.5
23:40 1012 29.88 841 24.83 1.1 34 53 -7.3 18.8
23:45 1012 29.88 841 24.83 1.2 34.2 52 -7.6 18.3
23:50 1012 29.88 841 24.83 1.4 34.4 51 -7.6 18.2
23:55 1012 29.88 841 24.83 1.5 34.6 51 -7.6 18.4
24:00 1012 29.88 841 24.83 1.2 34.1 54 -7.2 19